首页
METAR-TAF:

METAR-TAF

机场 :

Marshalltown Municipal Airport

Marshalltown, 艾奥瓦州, 美国

纬度: 42-06-38N, 经度: 092-54-58W, 海拔: 296米

当前天气观测

该预报发布于41分钟前的05:53 UTC
风速12节,风向南转西南,有时为22节阵风
温度 29°C
湿度 70%
气压 1005 hPa
能見度: 16.1公里
天空无云

METAR: KMIW 250553Z AUTO 21012G22KT 10SM CLR 29/23 A2967 RMK AO2 SLP037 T02940228 10339 20294 403390194 58007

时间: 01:34 (06:34 UTC)


TAF: 丢失

超过4000个机场的气象观测和天气预报(METAR&TAF报告)。

可查询的气象台以黄色和红色小点在地图上表示。

将鼠标移到小点上方,可查看气象台名称。

然后点击查看天气观测和预报。

如需切换地图:点击带黑十字的绿色按钮放大地图;点击带横线的绿色按钮缩小地图;或者点击绿色箭头查看邻近地区的地图。


METAR-TAF: